sensor_id;sensor_type;location;lat;lon;timestamp;temperature;humidity
56076;DHT22;41951;49.022;12.066;2023-12-22T00:02:16;5.20;99.90
56076;DHT22;41951;49.022;12.066;2023-12-22T00:04:42;5.20;99.90
56076;DHT22;41951;49.022;12.066;2023-12-22T00:07:07;5.10;99.90
56076;DHT22;41951;49.022;12.066;2023-12-22T00:09:33;5.10;99.90
56076;DHT22;41951;49.022;12.066;2023-12-22T00:11:58;5.10;99.90
56076;DHT22;41951;49.022;12.066;2023-12-22T00:14:24;5.10;99.90
56076;DHT22;41951;49.022;12.066;2023-12-22T00:16:49;5.10;99.90
56076;DHT22;41951;49.022;12.066;2023-12-22T00:19:15;5.10;99.90
56076;DHT22;41951;49.022;12.066;2023-12-22T00:21:41;5.10;99.90
56076;DHT22;41951;49.022;12.066;2023-12-22T00:24:06;5.10;99.90
56076;DHT22;41951;49.022;12.066;2023-12-22T00:26:32;5.30;99.90
56076;DHT22;41951;49.022;12.066;2023-12-22T00:28:58;5.10;99.90
56076;DHT22;41951;49.022;12.066;2023-12-22T00:31:23;5.10;99.90
56076;DHT22;41951;49.022;12.066;2023-12-22T00:33:49;5.00;99.90
56076;DHT22;41951;49.022;12.066;2023-12-22T00:36:15;5.00;99.90
56076;DHT22;41951;49.022;12.066;2023-12-22T00:38:40;5.00;99.90
56076;DHT22;41951;49.022;12.066;2023-12-22T00:41:06;5.00;99.90
56076;DHT22;41951;49.022;12.066;2023-12-22T00:43:31;4.90;99.90
56076;DHT22;41951;49.022;12.066;2023-12-22T00:45:57;4.90;99.90
56076;DHT22;41951;49.022;12.066;2023-12-22T00:48:23;4.90;99.90
56076;DHT22;41951;49.022;12.066;2023-12-22T00:50:48;4.80;99.90
56076;DHT22;41951;49.022;12.066;2023-12-22T00:53:14;4.80;99.90
56076;DHT22;41951;49.022;12.066;2023-12-22T00:55:40;4.80;99.90
56076;DHT22;41951;49.022;12.066;2023-12-22T00:58:05;4.80;99.90
56076;DHT22;41951;49.022;12.066;2023-12-22T01:00:31;4.80;99.90
56076;DHT22;41951;49.022;12.066;2023-12-22T01:02:56;4.80;99.90
56076;DHT22;41951;49.022;12.066;2023-12-22T01:05:22;4.80;99.90
56076;DHT22;41951;49.022;12.066;2023-12-22T01:07:48;4.70;99.90
56076;DHT22;41951;49.022;12.066;2023-12-22T01:10:13;4.70;99.90
56076;DHT22;41951;49.022;12.066;2023-12-22T01:12:39;4.70;99.90
56076;DHT22;41951;49.022;12.066;2023-12-22T01:15:05;4.70;99.90
56076;DHT22;41951;49.022;12.066;2023-12-22T01:17:31;4.60;99.90
56076;DHT22;41951;49.022;12.066;2023-12-22T01:19:56;4.60;99.90
56076;DHT22;41951;49.022;12.066;2023-12-22T01:22:22;4.50;99.90
56076;DHT22;41951;49.022;12.066;2023-12-22T01:24:48;4.50;99.90
56076;DHT22;41951;49.022;12.066;2023-12-22T01:27:14;4.60;99.90
56076;DHT22;41951;49.022;12.066;2023-12-22T01:29:39;4.50;99.90
56076;DHT22;41951;49.022;12.066;2023-12-22T01:32:05;4.50;99.90
56076;DHT22;41951;49.022;12.066;2023-12-22T01:34:31;4.50;99.90
56076;DHT22;41951;49.022;12.066;2023-12-22T01:36:57;4.50;99.90
56076;DHT22;41951;49.022;12.066;2023-12-22T01:39:22;4.80;99.90
56076;DHT22;41951;49.022;12.066;2023-12-22T01:41:48;4.50;99.90
56076;DHT22;41951;49.022;12.066;2023-12-22T01:44:14;4.40;99.90
56076;DHT22;41951;49.022;12.066;2023-12-22T01:46:39;4.40;99.90
56076;DHT22;41951;49.022;12.066;2023-12-22T01:49:05;4.40;99.90
56076;DHT22;41951;49.022;12.066;2023-12-22T01:51:33;4.40;99.90
56076;DHT22;41951;49.022;12.066;2023-12-22T01:54:00;4.40;99.90
56076;DHT22;41951;49.022;12.066;2023-12-22T01:56:26;4.40;99.90
56076;DHT22;41951;49.022;12.066;2023-12-22T01:58:57;4.30;99.90
56076;DHT22;41951;49.022;12.066;2023-12-22T02:01:23;4.20;99.90
56076;DHT22;41951;49.022;12.066;2023-12-22T02:03:50;4.30;99.90
56076;DHT22;41951;49.022;12.066;2023-12-22T02:06:20;4.20;99.90
56076;DHT22;41951;49.022;12.066;2023-12-22T02:08:49;4.20;99.90
56076;DHT22;41951;49.022;12.066;2023-12-22T02:11:15;4.20;99.90
56076;DHT22;41951;49.022;12.066;2023-12-22T02:13:42;4.20;99.90
56076;DHT22;41951;49.022;12.066;2023-12-22T02:16:22;4.20;99.90
56076;DHT22;41951;49.022;12.066;2023-12-22T02:18:53;4.20;99.90
56076;DHT22;41951;49.022;12.066;2023-12-22T02:21:20;4.20;99.90
56076;DHT22;41951;49.022;12.066;2023-12-22T02:23:47;4.10;99.90
56076;DHT22;41951;49.022;12.066;2023-12-22T02:26:23;4.20;99.90
56076;DHT22;41951;49.022;12.066;2023-12-22T02:28:50;4.20;99.90
56076;DHT22;41951;49.022;12.066;2023-12-22T02:31:19;4.10;99.90
56076;DHT22;41951;49.022;12.066;2023-12-22T02:33:47;4.20;99.90
56076;DHT22;41951;49.022;12.066;2023-12-22T02:36:15;4.20;99.90
56076;DHT22;41951;49.022;12.066;2023-12-22T02:38:42;4.10;99.90
56076;DHT22;41951;49.022;12.066;2023-12-22T02:41:08;4.20;99.90
56076;DHT22;41951;49.022;12.066;2023-12-22T02:43:35;4.10;99.90
56076;DHT22;41951;49.022;12.066;2023-12-22T02:46:01;4.10;99.90
56076;DHT22;41951;49.022;12.066;2023-12-22T02:48:26;4.10;99.90
56076;DHT22;41951;49.022;12.066;2023-12-22T02:50:52;4.10;99.90
56076;DHT22;41951;49.022;12.066;2023-12-22T02:53:17;4.00;99.90
56076;DHT22;41951;49.022;12.066;2023-12-22T02:55:43;4.10;99.90
56076;DHT22;41951;49.022;12.066;2023-12-22T02:58:08;4.10;99.90
56076;DHT22;41951;49.022;12.066;2023-12-22T03:00:34;4.20;99.90
56076;DHT22;41951;49.022;12.066;2023-12-22T03:02:59;4.10;99.90
56076;DHT22;41951;49.022;12.066;2023-12-22T03:05:25;4.10;99.90
56076;DHT22;41951;49.022;12.066;2023-12-22T03:07:50;4.20;99.90
56076;DHT22;41951;49.022;12.066;2023-12-22T03:10:16;4.20;99.90
56076;DHT22;41951;49.022;12.066;2023-12-22T03:12:41;4.20;99.90
56076;DHT22;41951;49.022;12.066;2023-12-22T03:15:07;4.20;99.90
56076;DHT22;41951;49.022;12.066;2023-12-22T03:17:33;4.20;99.90
56076;DHT22;41951;49.022;12.066;2023-12-22T03:19:59;4.10;99.90
56076;DHT22;41951;49.022;12.066;2023-12-22T03:22:24;4.20;99.90
56076;DHT22;41951;49.022;12.066;2023-12-22T03:24:50;4.10;99.90
56076;DHT22;41951;49.022;12.066;2023-12-22T03:27:15;4.10;99.90
56076;DHT22;41951;49.022;12.066;2023-12-22T03:29:43;4.10;99.90
56076;DHT22;41951;49.022;12.066;2023-12-22T03:32:09;4.10;99.90
56076;DHT22;41951;49.022;12.066;2023-12-22T03:34:35;4.10;99.90
56076;DHT22;41951;49.022;12.066;2023-12-22T03:37:00;4.10;99.90
56076;DHT22;41951;49.022;12.066;2023-12-22T03:39:26;4.10;99.90
56076;DHT22;41951;49.022;12.066;2023-12-22T03:41:52;4.10;99.90
56076;DHT22;41951;49.022;12.066;2023-12-22T03:44:17;4.10;99.90
56076;DHT22;41951;49.022;12.066;2023-12-22T03:46:43;4.10;99.90
56076;DHT22;41951;49.022;12.066;2023-12-22T03:49:08;4.10;99.90
56076;DHT22;41951;49.022;12.066;2023-12-22T03:51:34;4.10;99.90
56076;DHT22;41951;49.022;12.066;2023-12-22T03:53:59;4.10;99.90
56076;DHT22;41951;49.022;12.066;2023-12-22T03:56:25;4.10;99.90
56076;DHT22;41951;49.022;12.066;2023-12-22T03:58:51;4.10;99.90
56076;DHT22;41951;49.022;12.066;2023-12-22T04:01:16;4.10;99.90
56076;DHT22;41951;49.022;12.066;2023-12-22T04:03:42;4.10;99.90
56076;DHT22;41951;49.022;12.066;2023-12-22T04:06:07;4.00;99.90
56076;DHT22;41951;49.022;12.066;2023-12-22T04:08:33;4.00;99.90
56076;DHT22;41951;49.022;12.066;2023-12-22T04:10:59;4.00;99.90
56076;DHT22;41951;49.022;12.066;2023-12-22T04:13:24;4.00;99.90
56076;DHT22;41951;49.022;12.066;2023-12-22T04:15:50;4.00;99.90
56076;DHT22;41951;49.022;12.066;2023-12-22T04:18:15;4.00;99.90
56076;DHT22;41951;49.022;12.066;2023-12-22T04:20:41;3.90;99.90
56076;DHT22;41951;49.022;12.066;2023-12-22T04:23:06;3.90;99.90
56076;DHT22;41951;49.022;12.066;2023-12-22T04:25:32;3.80;99.90
56076;DHT22;41951;49.022;12.066;2023-12-22T04:27:57;3.80;99.90
56076;DHT22;41951;49.022;12.066;2023-12-22T04:30:23;3.70;99.90
56076;DHT22;41951;49.022;12.066;2023-12-22T04:32:48;3.70;99.90
56076;DHT22;41951;49.022;12.066;2023-12-22T04:35:14;3.60;99.90
56076;DHT22;41951;49.022;12.066;2023-12-22T04:37:40;3.60;99.90
56076;DHT22;41951;49.022;12.066;2023-12-22T04:40:06;3.60;99.90
56076;DHT22;41951;49.022;12.066;2023-12-22T04:42:32;3.50;99.90
56076;DHT22;41951;49.022;12.066;2023-12-22T04:44:57;3.40;99.90
56076;DHT22;41951;49.022;12.066;2023-12-22T04:47:23;3.40;99.90
56076;DHT22;41951;49.022;12.066;2023-12-22T04:49:49;3.40;99.90
56076;DHT22;41951;49.022;12.066;2023-12-22T04:52:15;3.40;99.90
56076;DHT22;41951;49.022;12.066;2023-12-22T04:54:40;3.50;99.90
56076;DHT22;41951;49.022;12.066;2023-12-22T04:57:06;3.40;99.90
56076;DHT22;41951;49.022;12.066;2023-12-22T04:59:31;3.40;99.90
56076;DHT22;41951;49.022;12.066;2023-12-22T05:01:57;3.40;99.90
56076;DHT22;41951;49.022;12.066;2023-12-22T05:04:23;3.40;99.90
56076;DHT22;41951;49.022;12.066;2023-12-22T05:06:49;3.40;99.90
56076;DHT22;41951;49.022;12.066;2023-12-22T05:09:15;3.40;99.90
56076;DHT22;41951;49.022;12.066;2023-12-22T05:11:41;3.40;99.90
56076;DHT22;41951;49.022;12.066;2023-12-22T05:14:07;3.30;99.90
56076;DHT22;41951;49.022;12.066;2023-12-22T05:16:32;3.40;99.90
56076;DHT22;41951;49.022;12.066;2023-12-22T05:18:59;3.30;99.90
56076;DHT22;41951;49.022;12.066;2023-12-22T05:21:24;3.30;99.90
56076;DHT22;41951;49.022;12.066;2023-12-22T05:23:50;3.30;99.90
56076;DHT22;41951;49.022;12.066;2023-12-22T05:26:20;3.30;99.90
56076;DHT22;41951;49.022;12.066;2023-12-22T05:28:46;3.30;99.90
56076;DHT22;41951;49.022;12.066;2023-12-22T05:31:12;3.30;99.90
56076;DHT22;41951;49.022;12.066;2023-12-22T05:33:37;3.30;99.90
56076;DHT22;41951;49.022;12.066;2023-12-22T05:36:03;3.30;99.90
56076;DHT22;41951;49.022;12.066;2023-12-22T05:38:29;3.30;99.90
56076;DHT22;41951;49.022;12.066;2023-12-22T05:40:55;3.30;99.90
56076;DHT22;41951;49.022;12.066;2023-12-22T05:43:20;3.40;99.90
56076;DHT22;41951;49.022;12.066;2023-12-22T05:45:46;3.40;99.90
56076;DHT22;41951;49.022;12.066;2023-12-22T05:48:12;3.40;99.90
56076;DHT22;41951;49.022;12.066;2023-12-22T05:50:37;3.40;99.90
56076;DHT22;41951;49.022;12.066;2023-12-22T05:53:03;3.50;99.90
56076;DHT22;41951;49.022;12.066;2023-12-22T05:55:28;3.50;99.90
56076;DHT22;41951;49.022;12.066;2023-12-22T05:57:55;3.50;99.90
56076;DHT22;41951;49.022;12.066;2023-12-22T06:00:21;3.50;99.90
56076;DHT22;41951;49.022;12.066;2023-12-22T06:02:47;3.60;99.90
56076;DHT22;41951;49.022;12.066;2023-12-22T06:05:12;3.60;99.90
56076;DHT22;41951;49.022;12.066;2023-12-22T06:07:39;3.60;99.90
56076;DHT22;41951;49.022;12.066;2023-12-22T06:10:05;3.60;99.90
56076;DHT22;41951;49.022;12.066;2023-12-22T06:12:32;3.70;99.90
56076;DHT22;41951;49.022;12.066;2023-12-22T06:14:57;3.70;99.90
56076;DHT22;41951;49.022;12.066;2023-12-22T06:17:23;3.70;99.90
56076;DHT22;41951;49.022;12.066;2023-12-22T06:19:48;3.70;99.90
56076;DHT22;41951;49.022;12.066;2023-12-22T06:22:14;3.70;99.90
56076;DHT22;41951;49.022;12.066;2023-12-22T06:24:40;3.70;99.90
56076;DHT22;41951;49.022;12.066;2023-12-22T06:27:05;3.70;99.90
56076;DHT22;41951;49.022;12.066;2023-12-22T06:29:33;3.60;99.90
56076;DHT22;41951;49.022;12.066;2023-12-22T06:31:59;3.60;99.90
56076;DHT22;41951;49.022;12.066;2023-12-22T06:34:24;3.60;99.90
56076;DHT22;41951;49.022;12.066;2023-12-22T06:36:51;3.60;99.90
56076;DHT22;41951;49.022;12.066;2023-12-22T06:39:17;3.60;99.90
56076;DHT22;41951;49.022;12.066;2023-12-22T06:41:42;3.60;99.90
56076;DHT22;41951;49.022;12.066;2023-12-22T06:44:08;3.70;99.90
56076;DHT22;41951;49.022;12.066;2023-12-22T06:46:35;4.10;99.90
56076;DHT22;41951;49.022;12.066;2023-12-22T06:49:01;3.70;99.90
56076;DHT22;41951;49.022;12.066;2023-12-22T06:51:28;3.70;99.90
56076;DHT22;41951;49.022;12.066;2023-12-22T06:53:56;3.70;99.90
56076;DHT22;41951;49.022;12.066;2023-12-22T06:56:30;3.70;99.90
56076;DHT22;41951;49.022;12.066;2023-12-22T06:58:57;3.80;99.90
56076;DHT22;41951;49.022;12.066;2023-12-22T07:01:28;3.80;99.90
56076;DHT22;41951;49.022;12.066;2023-12-22T07:03:54;3.80;99.90
56076;DHT22;41951;49.022;12.066;2023-12-22T07:06:21;3.70;99.90
56076;DHT22;41951;49.022;12.066;2023-12-22T07:09:41;3.70;99.90
56076;DHT22;41951;49.022;12.066;2023-12-22T07:11:49;3.60;99.90
56076;DHT22;41951;49.022;12.066;2023-12-22T07:14:24;3.50;99.90
56076;DHT22;41951;49.022;12.066;2023-12-22T07:16:50;3.50;99.90
56076;DHT22;41951;49.022;12.066;2023-12-22T07:19:15;3.50;99.90
56076;DHT22;41951;49.022;12.066;2023-12-22T07:21:41;3.50;99.90
56076;DHT22;41951;49.022;12.066;2023-12-22T07:24:07;3.40;99.90
56076;DHT22;41951;49.022;12.066;2023-12-22T07:26:33;3.30;99.90
56076;DHT22;41951;49.022;12.066;2023-12-22T07:28:59;3.30;99.90
56076;DHT22;41951;49.022;12.066;2023-12-22T07:31:24;3.20;99.90
56076;DHT22;41951;49.022;12.066;2023-12-22T07:33:50;3.00;99.90
56076;DHT22;41951;49.022;12.066;2023-12-22T07:36:17;3.20;99.90
56076;DHT22;41951;49.022;12.066;2023-12-22T07:38:44;3.20;99.90
56076;DHT22;41951;49.022;12.066;2023-12-22T07:41:09;3.20;99.90
56076;DHT22;41951;49.022;12.066;2023-12-22T07:43:39;3.20;99.90
56076;DHT22;41951;49.022;12.066;2023-12-22T07:46:04;3.30;99.90
56076;DHT22;41951;49.022;12.066;2023-12-22T07:48:33;3.30;99.90
56076;DHT22;41951;49.022;12.066;2023-12-22T07:50:58;3.40;99.90
56076;DHT22;41951;49.022;12.066;2023-12-22T07:53:24;3.50;99.90
56076;DHT22;41951;49.022;12.066;2023-12-22T07:55:50;3.60;99.90
56076;DHT22;41951;49.022;12.066;2023-12-22T07:58:15;3.70;99.90
56076;DHT22;41951;49.022;12.066;2023-12-22T08:00:42;3.80;99.90
56076;DHT22;41951;49.022;12.066;2023-12-22T08:03:08;3.80;99.90
56076;DHT22;41951;49.022;12.066;2023-12-22T08:05:35;3.90;99.90
56076;DHT22;41951;49.022;12.066;2023-12-22T08:08:00;3.90;99.90
56076;DHT22;41951;49.022;12.066;2023-12-22T08:10:26;4.00;99.90
56076;DHT22;41951;49.022;12.066;2023-12-22T08:12:52;4.10;99.90
56076;DHT22;41951;49.022;12.066;2023-12-22T08:15:19;4.10;99.90
56076;DHT22;41951;49.022;12.066;2023-12-22T08:17:48;4.10;99.90
56076;DHT22;41951;49.022;12.066;2023-12-22T08:20:21;4.20;99.90
56076;DHT22;41951;49.022;12.066;2023-12-22T08:22:47;4.20;99.90
56076;DHT22;41951;49.022;12.066;2023-12-22T08:25:14;4.20;99.90
56076;DHT22;41951;49.022;12.066;2023-12-22T08:27:39;4.30;99.90
56076;DHT22;41951;49.022;12.066;2023-12-22T08:30:06;4.20;99.90
56076;DHT22;41951;49.022;12.066;2023-12-22T08:32:32;4.20;99.90
56076;DHT22;41951;49.022;12.066;2023-12-22T08:34:57;4.20;99.90
56076;DHT22;41951;49.022;12.066;2023-12-22T08:37:23;4.30;99.90
56076;DHT22;41951;49.022;12.066;2023-12-22T08:39:48;4.20;99.90
56076;DHT22;41951;49.022;12.066;2023-12-22T08:42:16;4.30;99.90
56076;DHT22;41951;49.022;12.066;2023-12-22T08:44:42;4.30;99.90
56076;DHT22;41951;49.022;12.066;2023-12-22T08:47:07;4.30;99.90
56076;DHT22;41951;49.022;12.066;2023-12-22T08:49:33;4.30;99.90
56076;DHT22;41951;49.022;12.066;2023-12-22T08:51:58;4.40;99.90
56076;DHT22;41951;49.022;12.066;2023-12-22T08:54:24;4.50;99.90
56076;DHT22;41951;49.022;12.066;2023-12-22T08:56:49;4.60;99.90
56076;DHT22;41951;49.022;12.066;2023-12-22T08:59:15;4.70;99.90
56076;DHT22;41951;49.022;12.066;2023-12-22T09:01:41;4.70;99.90
56076;DHT22;41951;49.022;12.066;2023-12-22T09:04:09;4.80;99.90
56076;DHT22;41951;49.022;12.066;2023-12-22T09:06:34;4.90;99.90
56076;DHT22;41951;49.022;12.066;2023-12-22T09:09:00;5.00;99.90
56076;DHT22;41951;49.022;12.066;2023-12-22T09:11:25;5.00;99.90
56076;DHT22;41951;49.022;12.066;2023-12-22T09:13:51;5.00;99.90
56076;DHT22;41951;49.022;12.066;2023-12-22T09:16:21;5.00;99.90
56076;DHT22;41951;49.022;12.066;2023-12-22T09:18:47;4.90;99.90
56076;DHT22;41951;49.022;12.066;2023-12-22T09:21:13;4.90;99.90
56076;DHT22;41951;49.022;12.066;2023-12-22T09:23:38;4.80;99.90
56076;DHT22;41951;49.022;12.066;2023-12-22T09:26:04;4.80;99.90
56076;DHT22;41951;49.022;12.066;2023-12-22T09:28:30;4.70;99.90
56076;DHT22;41951;49.022;12.066;2023-12-22T09:30:56;4.80;99.90
56076;DHT22;41951;49.022;12.066;2023-12-22T09:33:21;4.70;99.90
56076;DHT22;41951;49.022;12.066;2023-12-22T09:35:48;4.70;99.90
56076;DHT22;41951;49.022;12.066;2023-12-22T09:38:14;4.70;99.90
56076;DHT22;41951;49.022;12.066;2023-12-22T09:40:39;4.70;99.90
56076;DHT22;41951;49.022;12.066;2023-12-22T09:43:06;4.70;99.90
56076;DHT22;41951;49.022;12.066;2023-12-22T09:45:33;4.70;99.90
56076;DHT22;41951;49.022;12.066;2023-12-22T09:48:03;4.80;99.90
56076;DHT22;41951;49.022;12.066;2023-12-22T09:50:30;4.80;99.90
56076;DHT22;41951;49.022;12.066;2023-12-22T09:52:56;4.80;99.90
56076;DHT22;41951;49.022;12.066;2023-12-22T09:55:23;4.80;99.90
56076;DHT22;41951;49.022;12.066;2023-12-22T09:57:49;4.90;99.90
56076;DHT22;41951;49.022;12.066;2023-12-22T10:00:15;4.90;99.90
56076;DHT22;41951;49.022;12.066;2023-12-22T10:02:42;5.00;99.90
56076;DHT22;41951;49.022;12.066;2023-12-22T10:05:11;5.10;99.90
56076;DHT22;41951;49.022;12.066;2023-12-22T10:07:39;5.10;99.90
56076;DHT22;41951;49.022;12.066;2023-12-22T10:10:05;5.20;99.90
56076;DHT22;41951;49.022;12.066;2023-12-22T10:12:34;5.20;99.90
56076;DHT22;41951;49.022;12.066;2023-12-22T10:15:00;5.20;99.90
56076;DHT22;41951;49.022;12.066;2023-12-22T10:17:26;5.20;99.90
56076;DHT22;41951;49.022;12.066;2023-12-22T10:19:52;5.30;99.90
56076;DHT22;41951;49.022;12.066;2023-12-22T10:22:18;5.30;99.90
56076;DHT22;41951;49.022;12.066;2023-12-22T10:24:45;5.30;99.90
56076;DHT22;41951;49.022;12.066;2023-12-22T10:27:18;5.40;99.90
56076;DHT22;41951;49.022;12.066;2023-12-22T10:29:57;5.40;99.90
56076;DHT22;41951;49.022;12.066;2023-12-22T10:32:23;5.50;99.90
56076;DHT22;41951;49.022;12.066;2023-12-22T10:34:51;5.50;99.90
56076;DHT22;41951;49.022;12.066;2023-12-22T10:37:17;5.40;99.90
56076;DHT22;41951;49.022;12.066;2023-12-22T10:39:43;5.40;99.90
56076;DHT22;41951;49.022;12.066;2023-12-22T10:42:09;5.30;99.90
56076;DHT22;41951;49.022;12.066;2023-12-22T10:44:35;5.20;99.90
56076;DHT22;41951;49.022;12.066;2023-12-22T10:47:05;5.10;99.90
56076;DHT22;41951;49.022;12.066;2023-12-22T10:49:31;4.90;99.90
56076;DHT22;41951;49.022;12.066;2023-12-22T10:51:56;4.80;99.90
56076;DHT22;41951;49.022;12.066;2023-12-22T10:54:22;4.70;99.90
56076;DHT22;41951;49.022;12.066;2023-12-22T10:56:48;4.60;99.90
56076;DHT22;41951;49.022;12.066;2023-12-22T10:59:18;4.50;99.90
56076;DHT22;41951;49.022;12.066;2023-12-22T11:01:48;4.50;99.90
56076;DHT22;41951;49.022;12.066;2023-12-22T11:04:18;4.40;99.90
56076;DHT22;41951;49.022;12.066;2023-12-22T11:06:47;4.30;99.90
56076;DHT22;41951;49.022;12.066;2023-12-22T11:09:16;4.30;99.90
56076;DHT22;41951;49.022;12.066;2023-12-22T11:11:42;4.30;99.90
56076;DHT22;41951;49.022;12.066;2023-12-22T11:14:09;4.30;99.90
56076;DHT22;41951;49.022;12.066;2023-12-22T11:16:35;4.30;99.90
56076;DHT22;41951;49.022;12.066;2023-12-22T11:19:04;4.30;99.90
56076;DHT22;41951;49.022;12.066;2023-12-22T11:21:31;4.30;99.90
56076;DHT22;41951;49.022;12.066;2023-12-22T11:23:57;4.40;99.90
56076;DHT22;41951;49.022;12.066;2023-12-22T11:26:24;4.40;99.90
56076;DHT22;41951;49.022;12.066;2023-12-22T11:28:51;4.50;99.90
56076;DHT22;41951;49.022;12.066;2023-12-22T11:31:18;4.50;99.90
56076;DHT22;41951;49.022;12.066;2023-12-22T11:33:45;4.60;99.90
56076;DHT22;41951;49.022;12.066;2023-12-22T11:36:12;4.50;99.90
56076;DHT22;41951;49.022;12.066;2023-12-22T11:38:41;4.60;99.90
56076;DHT22;41951;49.022;12.066;2023-12-22T11:41:29;4.60;99.90
56076;DHT22;41951;49.022;12.066;2023-12-22T11:43:56;4.70;99.90
56076;DHT22;41951;49.022;12.066;2023-12-22T11:46:22;4.70;99.90
56076;DHT22;41951;49.022;12.066;2023-12-22T11:48:52;4.80;99.90
56076;DHT22;41951;49.022;12.066;2023-12-22T11:51:19;4.80;99.90
56076;DHT22;41951;49.022;12.066;2023-12-22T11:53:45;4.80;99.90
56076;DHT22;41951;49.022;12.066;2023-12-22T11:56:12;4.90;99.90
56076;DHT22;41951;49.022;12.066;2023-12-22T12:01:07;4.90;99.90
56076;DHT22;41951;49.022;12.066;2023-12-22T12:03:36;4.90;99.90
56076;DHT22;41951;49.022;12.066;2023-12-22T12:08:47;4.80;99.90
56076;DHT22;41951;49.022;12.066;2023-12-22T12:11:14;4.80;99.90
56076;DHT22;41951;49.022;12.066;2023-12-22T12:13:42;4.80;99.90
56076;DHT22;41951;49.022;12.066;2023-12-22T12:16:11;4.70;99.90
56076;DHT22;41951;49.022;12.066;2023-12-22T12:18:37;4.70;99.90
56076;DHT22;41951;49.022;12.066;2023-12-22T12:21:03;4.70;99.90
56076;DHT22;41951;49.022;12.066;2023-12-22T12:23:29;4.80;99.90
56076;DHT22;41951;49.022;12.066;2023-12-22T12:25:55;4.70;99.90
56076;DHT22;41951;49.022;12.066;2023-12-22T12:28:26;4.80;99.90
56076;DHT22;41951;49.022;12.066;2023-12-22T12:30:58;4.70;99.90
56076;DHT22;41951;49.022;12.066;2023-12-22T12:33:25;4.80;99.90
56076;DHT22;41951;49.022;12.066;2023-12-22T12:35:52;4.80;99.90
56076;DHT22;41951;49.022;12.066;2023-12-22T12:38:21;4.80;99.90
56076;DHT22;41951;49.022;12.066;2023-12-22T12:40:50;4.80;99.90
56076;DHT22;41951;49.022;12.066;2023-12-22T12:43:17;4.90;99.90
56076;DHT22;41951;49.022;12.066;2023-12-22T12:45:43;4.90;99.90
56076;DHT22;41951;49.022;12.066;2023-12-22T12:48:09;5.00;99.90
56076;DHT22;41951;49.022;12.066;2023-12-22T12:50:34;5.00;99.90
56076;DHT22;41951;49.022;12.066;2023-12-22T12:53:01;5.10;99.90
56076;DHT22;41951;49.022;12.066;2023-12-22T12:55:27;5.10;99.90
56076;DHT22;41951;49.022;12.066;2023-12-22T12:57:54;5.10;99.90
56076;DHT22;41951;49.022;12.066;2023-12-22T13:00:31;5.20;99.90
56076;DHT22;41951;49.022;12.066;2023-12-22T13:03:00;5.20;99.90
56076;DHT22;41951;49.022;12.066;2023-12-22T13:05:28;5.20;99.90
56076;DHT22;41951;49.022;12.066;2023-12-22T13:08:06;5.20;99.90
56076;DHT22;41951;49.022;12.066;2023-12-22T13:10:32;5.30;99.90
56076;DHT22;41951;49.022;12.066;2023-12-22T13:12:57;5.30;99.90
56076;DHT22;41951;49.022;12.066;2023-12-22T13:15:23;5.30;99.90
56076;DHT22;41951;49.022;12.066;2023-12-22T13:17:48;5.40;99.90
56076;DHT22;41951;49.022;12.066;2023-12-22T13:20:14;5.50;99.90
56076;DHT22;41951;49.022;12.066;2023-12-22T13:22:40;5.60;99.90
56076;DHT22;41951;49.022;12.066;2023-12-22T13:25:06;5.60;99.90
56076;DHT22;41951;49.022;12.066;2023-12-22T13:27:44;5.70;99.90
56076;DHT22;41951;49.022;12.066;2023-12-22T13:30:10;5.70;99.90
56076;DHT22;41951;49.022;12.066;2023-12-22T13:32:36;5.70;99.90
56076;DHT22;41951;49.022;12.066;2023-12-22T13:35:02;5.80;99.90
56076;DHT22;41951;49.022;12.066;2023-12-22T13:37:29;5.80;99.90
56076;DHT22;41951;49.022;12.066;2023-12-22T13:39:56;5.90;99.90
56076;DHT22;41951;49.022;12.066;2023-12-22T13:42:23;5.90;99.90
56076;DHT22;41951;49.022;12.066;2023-12-22T13:44:50;6.00;99.90
56076;DHT22;41951;49.022;12.066;2023-12-22T13:47:18;6.00;99.90
56076;DHT22;41951;49.022;12.066;2023-12-22T13:49:45;6.10;99.90
56076;DHT22;41951;49.022;12.066;2023-12-22T13:54:53;6.20;99.90
56076;DHT22;41951;49.022;12.066;2023-12-22T13:57:22;6.20;99.90
56076;DHT22;41951;49.022;12.066;2023-12-22T13:59:47;6.20;99.90
56076;DHT22;41951;49.022;12.066;2023-12-22T14:02:13;6.20;99.90
56076;DHT22;41951;49.022;12.066;2023-12-22T14:04:39;6.30;99.90
56076;DHT22;41951;49.022;12.066;2023-12-22T14:07:04;6.30;99.90
56076;DHT22;41951;49.022;12.066;2023-12-22T14:09:30;6.30;99.90
56076;DHT22;41951;49.022;12.066;2023-12-22T14:11:59;6.30;99.90
56076;DHT22;41951;49.022;12.066;2023-12-22T14:14:24;6.30;99.90
56076;DHT22;41951;49.022;12.066;2023-12-22T14:16:50;6.40;99.90
56076;DHT22;41951;49.022;12.066;2023-12-22T14:19:15;6.40;99.90
56076;DHT22;41951;49.022;12.066;2023-12-22T14:21:41;6.40;99.90
56076;DHT22;41951;49.022;12.066;2023-12-22T14:24:07;6.50;99.90
56076;DHT22;41951;49.022;12.066;2023-12-22T14:26:33;6.50;99.90
56076;DHT22;41951;49.022;12.066;2023-12-22T14:28:58;6.40;99.90
56076;DHT22;41951;49.022;12.066;2023-12-22T14:31:24;6.40;99.90
56076;DHT22;41951;49.022;12.066;2023-12-22T14:33:49;6.40;99.90
56076;DHT22;41951;49.022;12.066;2023-12-22T14:36:15;6.40;99.90
56076;DHT22;41951;49.022;12.066;2023-12-22T14:38:40;6.40;99.90
56076;DHT22;41951;49.022;12.066;2023-12-22T14:41:06;6.40;99.90
56076;DHT22;41951;49.022;12.066;2023-12-22T14:43:32;6.40;99.90
56076;DHT22;41951;49.022;12.066;2023-12-22T14:48:36;6.40;99.90
56076;DHT22;41951;49.022;12.066;2023-12-22T14:51:01;6.30;99.90
56076;DHT22;41951;49.022;12.066;2023-12-22T14:53:27;6.30;99.90
56076;DHT22;41951;49.022;12.066;2023-12-22T14:55:53;6.30;99.90
56076;DHT22;41951;49.022;12.066;2023-12-22T14:58:22;6.30;99.90
56076;DHT22;41951;49.022;12.066;2023-12-22T15:00:47;6.30;99.90
56076;DHT22;41951;49.022;12.066;2023-12-22T15:03:13;6.40;99.90
56076;DHT22;41951;49.022;12.066;2023-12-22T15:05:39;6.40;99.90
56076;DHT22;41951;49.022;12.066;2023-12-22T15:08:04;6.40;99.90
56076;DHT22;41951;49.022;12.066;2023-12-22T15:10:32;6.40;99.90
56076;DHT22;41951;49.022;12.066;2023-12-22T15:12:58;6.50;99.90
56076;DHT22;41951;49.022;12.066;2023-12-22T15:15:23;6.50;99.90
56076;DHT22;41951;49.022;12.066;2023-12-22T15:17:49;6.50;99.90
56076;DHT22;41951;49.022;12.066;2023-12-22T15:20:14;6.50;99.90
56076;DHT22;41951;49.022;12.066;2023-12-22T15:22:40;6.50;99.90
56076;DHT22;41951;49.022;12.066;2023-12-22T15:25:05;6.60;99.90
56076;DHT22;41951;49.022;12.066;2023-12-22T15:27:31;6.70;99.90
56076;DHT22;41951;49.022;12.066;2023-12-22T15:29:58;6.80;99.90
56076;DHT22;41951;49.022;12.066;2023-12-22T15:32:23;6.90;99.90
56076;DHT22;41951;49.022;12.066;2023-12-22T15:34:49;6.90;99.90
56076;DHT22;41951;49.022;12.066;2023-12-22T15:37:14;7.00;99.90